Santa Venetia, California
Current Conditions -  °F | °C
As of 3:15 AM on Saturday 25 Oct 2014 (Local Time) from KDVO Reporting Station
Overcast Overcast  
Wind Chill: 66°   Ceiling: 2600
Heat Index: 66°   Visibility: 10mi
Dew Point: 57°   Wind: 18mph
Humidity: 73%   Direction: 180°S
Pressure: 29.89"   Gusts: 28mph
Location:  38.0232°N, 122.547°W
Report Text: KDVO 251015Z AUTO 18016G24KT 10SM BKN026 OVC032 19/14 A2989 RMK AO2
Loading
Personal Weather Stations






























Interactive Weather Map New forecast layout! Learn more

10-Day Weather Forecast

Advertisements
Track Severe Weather on mobile